sensor_id;sensor_type;location;lat;lon;timestamp;P1;durP1;ratioP1;P2;durP2;ratioP2
10957;SDS011;5531;42.570;23.676;2022-09-12T00:01:56;3.50;;;3.20;;
10957;SDS011;5531;42.570;23.676;2022-09-12T00:04:25;3.35;;;3.05;;
10957;SDS011;5531;42.570;23.676;2022-09-12T00:06:55;3.50;;;3.20;;
10957;SDS011;5531;42.570;23.676;2022-09-12T00:09:24;4.20;;;3.80;;
10957;SDS011;5531;42.570;23.676;2022-09-12T00:11:53;3.63;;;3.33;;
10957;SDS011;5531;42.570;23.676;2022-09-12T00:14:24;4.05;;;3.65;;
10957;SDS011;5531;42.570;23.676;2022-09-12T00:16:55;3.92;;;3.33;;
10957;SDS011;5531;42.570;23.676;2022-09-12T00:19:25;3.70;;;3.40;;
10957;SDS011;5531;42.570;23.676;2022-09-12T00:21:54;4.22;;;3.45;;
10957;SDS011;5531;42.570;23.676;2022-09-12T00:24:23;3.83;;;3.28;;
10957;SDS011;5531;42.570;23.676;2022-09-12T00:26:52;3.53;;;3.22;;
10957;SDS011;5531;42.570;23.676;2022-09-12T00:29:24;4.05;;;3.50;;
10957;SDS011;5531;42.570;23.676;2022-09-12T00:31:53;3.65;;;3.35;;
10957;SDS011;5531;42.570;23.676;2022-09-12T00:34:22;3.38;;;3.00;;
10957;SDS011;5531;42.570;23.676;2022-09-12T00:36:51;3.70;;;3.15;;
10957;SDS011;5531;42.570;23.676;2022-09-12T00:39:20;3.75;;;3.42;;
10957;SDS011;5531;42.570;23.676;2022-09-12T00:41:49;3.83;;;3.47;;
10957;SDS011;5531;42.570;23.676;2022-09-12T00:47:19;3.83;;;3.42;;
10957;SDS011;5531;42.570;23.676;2022-09-12T00:49:54;3.97;;;3.10;;
10957;SDS011;5531;42.570;23.676;2022-09-12T00:52:29;3.50;;;3.20;;
10957;SDS011;5531;42.570;23.676;2022-09-12T00:55:03;3.78;;;3.35;;
10957;SDS011;5531;42.570;23.676;2022-09-12T00:57:36;3.45;;;3.15;;
10957;SDS011;5531;42.570;23.676;2022-09-12T01:00:12;3.47;;;3.17;;
10957;SDS011;5531;42.570;23.676;2022-09-12T01:02:43;3.47;;;3.17;;
10957;SDS011;5531;42.570;23.676;2022-09-12T01:05:15;4.05;;;3.20;;
10957;SDS011;5531;42.570;23.676;2022-09-12T01:07:45;3.60;;;3.08;;
10957;SDS011;5531;42.570;23.676;2022-09-12T01:10:15;3.40;;;3.10;;
10957;SDS011;5531;42.570;23.676;2022-09-12T01:12:45;4.18;;;3.60;;
10957;SDS011;5531;42.570;23.676;2022-09-12T01:15:18;3.95;;;3.55;;
10957;SDS011;5531;42.570;23.676;2022-09-12T01:17:50;3.38;;;3.08;;
10957;SDS011;5531;42.570;23.676;2022-09-12T01:20:41;3.72;;;3.35;;
10957;SDS011;5531;42.570;23.676;2022-09-12T01:26:23;3.17;;;2.88;;
10957;SDS011;5531;42.570;23.676;2022-09-12T01:29:11;2.80;;;2.58;;
10957;SDS011;5531;42.570;23.676;2022-09-12T01:31:59;3.28;;;2.90;;
10957;SDS011;5531;42.570;23.676;2022-09-12T01:34:37;3.17;;;2.88;;
10957;SDS011;5531;42.570;23.676;2022-09-12T01:37:14;3.30;;;3.00;;
10957;SDS011;5531;42.570;23.676;2022-09-12T01:39:49;3.42;;;3.13;;
10957;SDS011;5531;42.570;23.676;2022-09-12T01:42:30;2.65;;;2.45;;
10957;SDS011;5531;42.570;23.676;2022-09-12T01:45:08;2.97;;;2.67;;
10957;SDS011;5531;42.570;23.676;2022-09-12T01:47:48;2.92;;;2.63;;
10957;SDS011;5531;42.570;23.676;2022-09-12T01:50:24;3.63;;;3.10;;
10957;SDS011;5531;42.570;23.676;2022-09-12T01:52:56;3.17;;;2.80;;
10957;SDS011;5531;42.570;23.676;2022-09-12T01:55:30;2.97;;;2.70;;
10957;SDS011;5531;42.570;23.676;2022-09-12T01:58:03;3.95;;;2.72;;
10957;SDS011;5531;42.570;23.676;2022-09-12T02:00:36;3.30;;;2.97;;
10957;SDS011;5531;42.570;23.676;2022-09-12T02:03:16;3.45;;;3.15;;
10957;SDS011;5531;42.570;23.676;2022-09-12T02:05:50;3.13;;;2.83;;
10957;SDS011;5531;42.570;23.676;2022-09-12T02:08:24;3.15;;;2.85;;
10957;SDS011;5531;42.570;23.676;2022-09-12T02:10:59;3.55;;;2.83;;
10957;SDS011;5531;42.570;23.676;2022-09-12T02:13:34;3.15;;;2.85;;
10957;SDS011;5531;42.570;23.676;2022-09-12T02:16:09;4.05;;;3.13;;
10957;SDS011;5531;42.570;23.676;2022-09-12T02:18:46;3.33;;;3.03;;
10957;SDS011;5531;42.570;23.676;2022-09-12T02:21:19;3.17;;;2.88;;
10957;SDS011;5531;42.570;23.676;2022-09-12T02:23:52;2.80;;;2.60;;
10957;SDS011;5531;42.570;23.676;2022-09-12T02:26:28;2.90;;;2.60;;
10957;SDS011;5531;42.570;23.676;2022-09-12T02:29:02;3.13;;;2.83;;
10957;SDS011;5531;42.570;23.676;2022-09-12T02:31:33;3.08;;;2.75;;
10957;SDS011;5531;42.570;23.676;2022-09-12T02:34:12;2.88;;;2.63;;
10957;SDS011;5531;42.570;23.676;2022-09-12T02:36:58;3.15;;;2.85;;
10957;SDS011;5531;42.570;23.676;2022-09-12T02:39:33;3.47;;;2.90;;
10957;SDS011;5531;42.570;23.676;2022-09-12T02:42:02;2.80;;;2.53;;
10957;SDS011;5531;42.570;23.676;2022-09-12T02:44:32;3.33;;;3.00;;
10957;SDS011;5531;42.570;23.676;2022-09-12T02:47:03;3.42;;;2.80;;
10957;SDS011;5531;42.570;23.676;2022-09-12T02:49:38;2.55;;;2.35;;
10957;SDS011;5531;42.570;23.676;2022-09-12T02:52:07;2.75;;;2.45;;
10957;SDS011;5531;42.570;23.676;2022-09-12T02:54:37;3.13;;;2.78;;
10957;SDS011;5531;42.570;23.676;2022-09-12T02:57:13;3.08;;;2.78;;
10957;SDS011;5531;42.570;23.676;2022-09-12T02:59:44;2.75;;;2.55;;
10957;SDS011;5531;42.570;23.676;2022-09-12T03:02:19;3.20;;;2.75;;
10957;SDS011;5531;42.570;23.676;2022-09-12T03:05:05;2.80;;;2.60;;
10957;SDS011;5531;42.570;23.676;2022-09-12T03:11:05;3.47;;;2.70;;
10957;SDS011;5531;42.570;23.676;2022-09-12T03:13:56;3.17;;;2.88;;
10957;SDS011;5531;42.570;23.676;2022-09-12T03:16:36;4.07;;;3.00;;
10957;SDS011;5531;42.570;23.676;2022-09-12T03:19:14;2.78;;;2.58;;
10957;SDS011;5531;42.570;23.676;2022-09-12T03:21:56;3.42;;;3.13;;
10957;SDS011;5531;42.570;23.676;2022-09-12T03:24:30;3.22;;;2.92;;
10957;SDS011;5531;42.570;23.676;2022-09-12T03:27:04;3.30;;;3.00;;
10957;SDS011;5531;42.570;23.676;2022-09-12T03:29:39;3.30;;;3.00;;
10957;SDS011;5531;42.570;23.676;2022-09-12T03:32:11;3.97;;;2.90;;
10957;SDS011;5531;42.570;23.676;2022-09-12T03:34:41;3.28;;;2.97;;
10957;SDS011;5531;42.570;23.676;2022-09-12T03:37:12;3.35;;;2.78;;
10957;SDS011;5531;42.570;23.676;2022-09-12T03:39:42;3.00;;;2.70;;
10957;SDS011;5531;42.570;23.676;2022-09-12T03:42:11;4.68;;;2.90;;
10957;SDS011;5531;42.570;23.676;2022-09-12T03:44:40;3.40;;;3.10;;
10957;SDS011;5531;42.570;23.676;2022-09-12T03:47:09;3.30;;;3.00;;
10957;SDS011;5531;42.570;23.676;2022-09-12T03:49:38;3.08;;;2.78;;
10957;SDS011;5531;42.570;23.676;2022-09-12T03:52:07;3.15;;;2.85;;
10957;SDS011;5531;42.570;23.676;2022-09-12T03:54:38;3.25;;;2.95;;
10957;SDS011;5531;42.570;23.676;2022-09-12T03:57:07;3.38;;;3.08;;
10957;SDS011;5531;42.570;23.676;2022-09-12T03:59:37;3.40;;;3.10;;
10957;SDS011;5531;42.570;23.676;2022-09-12T04:02:06;3.10;;;2.80;;
10957;SDS011;5531;42.570;23.676;2022-09-12T04:04:36;3.00;;;2.70;;
10957;SDS011;5531;42.570;23.676;2022-09-12T04:07:06;3.33;;;2.97;;
10957;SDS011;5531;42.570;23.676;2022-09-12T04:09:35;3.47;;;2.90;;
10957;SDS011;5531;42.570;23.676;2022-09-12T04:12:07;3.65;;;2.97;;
10957;SDS011;5531;42.570;23.676;2022-09-12T04:14:37;3.22;;;2.92;;
10957;SDS011;5531;42.570;23.676;2022-09-12T04:17:06;2.75;;;2.55;;
10957;SDS011;5531;42.570;23.676;2022-09-12T04:19:35;2.85;;;2.65;;
10957;SDS011;5531;42.570;23.676;2022-09-12T04:22:04;3.30;;;3.00;;
10957;SDS011;5531;42.570;23.676;2022-09-12T04:24:33;3.97;;;3.38;;
10957;SDS011;5531;42.570;23.676;2022-09-12T04:27:02;4.10;;;3.22;;
10957;SDS011;5531;42.570;23.676;2022-09-12T04:29:34;3.95;;;3.22;;
10957;SDS011;5531;42.570;23.676;2022-09-12T04:32:03;3.83;;;3.45;;
10957;SDS011;5531;42.570;23.676;2022-09-12T04:34:33;3.75;;;3.33;;
10957;SDS011;5531;42.570;23.676;2022-09-12T04:37:02;3.90;;;3.38;;
10957;SDS011;5531;42.570;23.676;2022-09-12T04:39:31;3.50;;;3.20;;
10957;SDS011;5531;42.570;23.676;2022-09-12T04:42:00;3.50;;;3.20;;
10957;SDS011;5531;42.570;23.676;2022-09-12T04:44:29;3.67;;;3.28;;
10957;SDS011;5531;42.570;23.676;2022-09-12T04:47:01;3.80;;;3.40;;
10957;SDS011;5531;42.570;23.676;2022-09-12T04:49:30;4.20;;;3.80;;
10957;SDS011;5531;42.570;23.676;2022-09-12T04:52:00;4.00;;;3.60;;
10957;SDS011;5531;42.570;23.676;2022-09-12T04:54:29;3.88;;;3.47;;
10957;SDS011;5531;42.570;23.676;2022-09-12T04:56:58;4.30;;;3.90;;
10957;SDS011;5531;42.570;23.676;2022-09-12T04:59:27;4.22;;;3.60;;
10957;SDS011;5531;42.570;23.676;2022-09-12T05:01:56;3.97;;;3.58;;
10957;SDS011;5531;42.570;23.676;2022-09-12T05:04:28;3.78;;;3.38;;
10957;SDS011;5531;42.570;23.676;2022-09-12T05:06:59;3.95;;;3.55;;
10957;SDS011;5531;42.570;23.676;2022-09-12T05:09:28;3.75;;;3.45;;
10957;SDS011;5531;42.570;23.676;2022-09-12T05:11:57;4.95;;;4.45;;
10957;SDS011;5531;42.570;23.676;2022-09-12T05:14:26;4.07;;;3.65;;
10957;SDS011;5531;42.570;23.676;2022-09-12T05:16:56;3.60;;;3.30;;
10957;SDS011;5531;42.570;23.676;2022-09-12T05:19:26;3.85;;;3.42;;
10957;SDS011;5531;42.570;23.676;2022-09-12T05:21:58;4.18;;;3.40;;
10957;SDS011;5531;42.570;23.676;2022-09-12T05:24:27;3.63;;;3.20;;
10957;SDS011;5531;42.570;23.676;2022-09-12T05:26:57;4.43;;;3.63;;
10957;SDS011;5531;42.570;23.676;2022-09-12T05:29:27;4.22;;;3.22;;
10957;SDS011;5531;42.570;23.676;2022-09-12T05:31:57;3.55;;;3.25;;
10957;SDS011;5531;42.570;23.676;2022-09-12T05:34:26;4.13;;;3.72;;
10957;SDS011;5531;42.570;23.676;2022-09-12T05:36:57;3.83;;;3.42;;
10957;SDS011;5531;42.570;23.676;2022-09-12T05:39:26;3.80;;;3.47;;
10957;SDS011;5531;42.570;23.676;2022-09-12T05:41:56;4.28;;;3.88;;
10957;SDS011;5531;42.570;23.676;2022-09-12T05:44:25;4.05;;;3.65;;
10957;SDS011;5531;42.570;23.676;2022-09-12T05:46:54;5.13;;;4.63;;
10957;SDS011;5531;42.570;23.676;2022-09-12T05:49:23;4.32;;;3.70;;
10957;SDS011;5531;42.570;23.676;2022-09-12T05:51:55;4.32;;;3.53;;
10957;SDS011;5531;42.570;23.676;2022-09-12T05:54:24;5.88;;;4.03;;
10957;SDS011;5531;42.570;23.676;2022-09-12T05:56:53;4.10;;;3.72;;
10957;SDS011;5531;42.570;23.676;2022-09-12T05:59:22;4.60;;;3.65;;
10957;SDS011;5531;42.570;23.676;2022-09-12T06:01:52;6.20;;;3.63;;
10957;SDS011;5531;42.570;23.676;2022-09-12T06:04:21;4.35;;;3.60;;
10957;SDS011;5531;42.570;23.676;2022-09-12T06:06:50;5.70;;;3.72;;
10957;SDS011;5531;42.570;23.676;2022-09-12T06:09:22;4.28;;;3.85;;
10957;SDS011;5531;42.570;23.676;2022-09-12T06:11:52;3.97;;;3.58;;
10957;SDS011;5531;42.570;23.676;2022-09-12T06:14:21;4.82;;;4.32;;
10957;SDS011;5531;42.570;23.676;2022-09-12T06:16:50;5.18;;;4.03;;
10957;SDS011;5531;42.570;23.676;2022-09-12T06:19:19;5.07;;;4.30;;
10957;SDS011;5531;42.570;23.676;2022-09-12T06:21:55;4.55;;;4.03;;
10957;SDS011;5531;42.570;23.676;2022-09-12T06:24:26;4.65;;;4.20;;
10957;SDS011;5531;42.570;23.676;2022-09-12T06:26:55;4.13;;;3.72;;
10957;SDS011;5531;42.570;23.676;2022-09-12T06:29:26;5.72;;;4.20;;
10957;SDS011;5531;42.570;23.676;2022-09-12T06:31:57;4.90;;;3.92;;
10957;SDS011;5531;42.570;23.676;2022-09-12T06:34:26;4.93;;;4.43;;
10957;SDS011;5531;42.570;23.676;2022-09-12T06:36:55;4.63;;;4.22;;
10957;SDS011;5531;42.570;23.676;2022-09-12T06:39:27;4.80;;;4.30;;
10957;SDS011;5531;42.570;23.676;2022-09-12T06:41:56;5.68;;;4.00;;
10957;SDS011;5531;42.570;23.676;2022-09-12T06:44:25;4.97;;;4.40;;
10957;SDS011;5531;42.570;23.676;2022-09-12T06:46:55;4.72;;;4.22;;
10957;SDS011;5531;42.570;23.676;2022-09-12T06:49:24;5.22;;;4.70;;
10957;SDS011;5531;42.570;23.676;2022-09-12T06:51:53;4.40;;;3.92;;
10957;SDS011;5531;42.570;23.676;2022-09-12T06:54:22;5.35;;;4.30;;
10957;SDS011;5531;42.570;23.676;2022-09-12T06:56:54;4.80;;;4.10;;
10957;SDS011;5531;42.570;23.676;2022-09-12T06:59:23;5.20;;;4.43;;
10957;SDS011;5531;42.570;23.676;2022-09-12T07:01:52;4.70;;;4.13;;
10957;SDS011;5531;42.570;23.676;2022-09-12T07:04:21;4.57;;;4.00;;
10957;SDS011;5531;42.570;23.676;2022-09-12T07:06:50;4.57;;;3.75;;
10957;SDS011;5531;42.570;23.676;2022-09-12T07:09:19;4.22;;;3.65;;
10957;SDS011;5531;42.570;23.676;2022-09-12T07:11:48;4.40;;;4.00;;
10957;SDS011;5531;42.570;23.676;2022-09-12T07:14:20;4.82;;;4.20;;
10957;SDS011;5531;42.570;23.676;2022-09-12T07:16:50;3.78;;;3.42;;
10957;SDS011;5531;42.570;23.676;2022-09-12T07:19:19;3.95;;;3.55;;
10957;SDS011;5531;42.570;23.676;2022-09-12T07:21:48;4.32;;;3.50;;
10957;SDS011;5531;42.570;23.676;2022-09-12T07:24:18;3.83;;;3.53;;
10957;SDS011;5531;42.570;23.676;2022-09-12T07:26:47;4.20;;;3.80;;
10957;SDS011;5531;42.570;23.676;2022-09-12T07:29:16;4.32;;;3.80;;
10957;SDS011;5531;42.570;23.676;2022-09-12T07:31:47;5.70;;;4.07;;
10957;SDS011;5531;42.570;23.676;2022-09-12T07:34:17;4.68;;;4.20;;
10957;SDS011;5531;42.570;23.676;2022-09-12T07:36:46;4.63;;;4.03;;
10957;SDS011;5531;42.570;23.676;2022-09-12T07:39:15;4.40;;;4.00;;
10957;SDS011;5531;42.570;23.676;2022-09-12T07:41:44;4.00;;;3.60;;
10957;SDS011;5531;42.570;23.676;2022-09-12T07:44:13;4.68;;;3.90;;
10957;SDS011;5531;42.570;23.676;2022-09-12T07:46:42;4.13;;;3.70;;
10957;SDS011;5531;42.570;23.676;2022-09-12T07:49:14;4.20;;;3.80;;
10957;SDS011;5531;42.570;23.676;2022-09-12T07:51:43;3.78;;;3.47;;
10957;SDS011;5531;42.570;23.676;2022-09-12T07:54:12;3.60;;;3.30;;
10957;SDS011;5531;42.570;23.676;2022-09-12T07:56:41;4.10;;;3.60;;
10957;SDS011;5531;42.570;23.676;2022-09-12T07:59:10;3.97;;;3.63;;
10957;SDS011;5531;42.570;23.676;2022-09-12T08:01:39;3.60;;;3.30;;
10957;SDS011;5531;42.570;23.676;2022-09-12T08:04:08;3.55;;;3.25;;
10957;SDS011;5531;42.570;23.676;2022-09-12T08:06:40;3.67;;;3.38;;
10957;SDS011;5531;42.570;23.676;2022-09-12T08:09:09;3.53;;;3.22;;
10957;SDS011;5531;42.570;23.676;2022-09-12T08:11:41;3.40;;;3.10;;
10957;SDS011;5531;42.570;23.676;2022-09-12T08:14:11;3.53;;;3.15;;
10957;SDS011;5531;42.570;23.676;2022-09-12T08:16:42;3.50;;;3.20;;
10957;SDS011;5531;42.570;23.676;2022-09-12T08:19:11;3.95;;;3.05;;
10957;SDS011;5531;42.570;23.676;2022-09-12T08:21:43;3.22;;;2.92;;
10957;SDS011;5531;42.570;23.676;2022-09-12T08:24:12;3.30;;;3.00;;
10957;SDS011;5531;42.570;23.676;2022-09-12T08:26:41;2.97;;;2.78;;
10957;SDS011;5531;42.570;23.676;2022-09-12T08:29:10;3.40;;;3.10;;
10957;SDS011;5531;42.570;23.676;2022-09-12T08:31:39;3.00;;;2.80;;
10957;SDS011;5531;42.570;23.676;2022-09-12T08:34:08;3.25;;;3.00;;
10957;SDS011;5531;42.570;23.676;2022-09-12T08:36:37;3.33;;;3.03;;
10957;SDS011;5531;42.570;23.676;2022-09-12T08:39:10;2.90;;;2.60;;
10957;SDS011;5531;42.570;23.676;2022-09-12T08:41:42;4.00;;;3.17;;
10957;SDS011;5531;42.570;23.676;2022-09-12T08:44:17;3.38;;;3.08;;
10957;SDS011;5531;42.570;23.676;2022-09-12T08:47:03;3.40;;;3.10;;
10957;SDS011;5531;42.570;23.676;2022-09-12T08:49:44;3.22;;;2.90;;
10957;SDS011;5531;42.570;23.676;2022-09-12T08:52:22;3.20;;;3.00;;
10957;SDS011;5531;42.570;23.676;2022-09-12T08:54:59;3.13;;;2.88;;
10957;SDS011;5531;42.570;23.676;2022-09-12T08:57:30;3.58;;;3.28;;
10957;SDS011;5531;42.570;23.676;2022-09-12T09:00:01;3.55;;;3.10;;
10957;SDS011;5531;42.570;23.676;2022-09-12T09:02:44;3.20;;;2.95;;
10957;SDS011;5531;42.570;23.676;2022-09-12T09:05:29;3.05;;;2.75;;
10957;SDS011;5531;42.570;23.676;2022-09-12T09:08:19;3.75;;;2.97;;
10957;SDS011;5531;42.570;23.676;2022-09-12T09:11:02;3.03;;;2.60;;
10957;SDS011;5531;42.570;23.676;2022-09-12T09:13:45;2.90;;;2.70;;
10957;SDS011;5531;42.570;23.676;2022-09-12T09:16:34;3.20;;;2.90;;
10957;SDS011;5531;42.570;23.676;2022-09-12T09:19:08;3.05;;;2.60;;
10957;SDS011;5531;42.570;23.676;2022-09-12T09:21:43;2.72;;;2.53;;
10957;SDS011;5531;42.570;23.676;2022-09-12T09:24:20;2.83;;;2.53;;
10957;SDS011;5531;42.570;23.676;2022-09-12T09:26:57;2.35;;;2.15;;
10957;SDS011;5531;42.570;23.676;2022-09-12T09:29:32;2.60;;;2.40;;
10957;SDS011;5531;42.570;23.676;2022-09-12T09:32:09;2.63;;;2.42;;
10957;SDS011;5531;42.570;23.676;2022-09-12T09:34:43;2.55;;;2.35;;
10957;SDS011;5531;42.570;23.676;2022-09-12T09:37:14;2.30;;;2.10;;
10957;SDS011;5531;42.570;23.676;2022-09-12T09:39:48;3.40;;;2.33;;
10957;SDS011;5531;42.570;23.676;2022-09-12T09:42:30;2.40;;;2.20;;
10957;SDS011;5531;42.570;23.676;2022-09-12T09:45:12;2.75;;;2.40;;
10957;SDS011;5531;42.570;23.676;2022-09-12T09:47:43;2.40;;;2.20;;
10957;SDS011;5531;42.570;23.676;2022-09-12T09:50:15;2.40;;;2.20;;
10957;SDS011;5531;42.570;23.676;2022-09-12T09:52:44;2.50;;;2.30;;
10957;SDS011;5531;42.570;23.676;2022-09-12T09:55:22;2.42;;;2.22;;
10957;SDS011;5531;42.570;23.676;2022-09-12T09:57:58;2.83;;;2.63;;
10957;SDS011;5531;42.570;23.676;2022-09-12T10:00:28;2.85;;;2.63;;
10957;SDS011;5531;42.570;23.676;2022-09-12T10:03:00;2.60;;;2.40;;
10957;SDS011;5531;42.570;23.676;2022-09-12T10:05:32;2.85;;;2.65;;
10957;SDS011;5531;42.570;23.676;2022-09-12T10:08:04;2.60;;;2.40;;
10957;SDS011;5531;42.570;23.676;2022-09-12T10:10:35;2.55;;;2.35;;
10957;SDS011;5531;42.570;23.676;2022-09-12T10:13:17;2.90;;;2.70;;
10957;SDS011;5531;42.570;23.676;2022-09-12T10:15:56;2.92;;;2.70;;
10957;SDS011;5531;42.570;23.676;2022-09-12T10:18:35;2.80;;;2.60;;
10957;SDS011;5531;42.570;23.676;2022-09-12T10:21:18;2.40;;;2.20;;
10957;SDS011;5531;42.570;23.676;2022-09-12T10:23:57;2.70;;;2.50;;
10957;SDS011;5531;42.570;23.676;2022-09-12T10:26:33;3.28;;;2.97;;
10957;SDS011;5531;42.570;23.676;2022-09-12T10:29:11;2.92;;;2.60;;
10957;SDS011;5531;42.570;23.676;2022-09-12T10:31:46;3.75;;;2.65;;
10957;SDS011;5531;42.570;23.676;2022-09-12T10:34:20;2.75;;;2.53;;
10957;SDS011;5531;42.570;23.676;2022-09-12T10:36:56;2.55;;;2.35;;
10957;SDS011;5531;42.570;23.676;2022-09-12T10:39:28;2.60;;;2.40;;
10957;SDS011;5531;42.570;23.676;2022-09-12T10:41:58;2.50;;;2.30;;
10957;SDS011;5531;42.570;23.676;2022-09-12T10:44:31;2.40;;;2.20;;
10957;SDS011;5531;42.570;23.676;2022-09-12T10:49:49;3.97;;;2.40;;
10957;SDS011;5531;42.570;23.676;2022-09-12T10:52:20;2.33;;;2.13;;
10957;SDS011;5531;42.570;23.676;2022-09-12T10:54:51;2.63;;;2.33;;
10957;SDS011;5531;42.570;23.676;2022-09-12T10:57:34;2.22;;;2.03;;
10957;SDS011;5531;42.570;23.676;2022-09-12T11:00:28;2.45;;;2.25;;
10957;SDS011;5531;42.570;23.676;2022-09-12T11:03:04;2.90;;;2.63;;
10957;SDS011;5531;42.570;23.676;2022-09-12T11:05:48;2.58;;;2.38;;
10957;SDS011;5531;42.570;23.676;2022-09-12T11:08:30;2.80;;;2.60;;
10957;SDS011;5531;42.570;23.676;2022-09-12T11:11:29;2.63;;;2.42;;
10957;SDS011;5531;42.570;23.676;2022-09-12T11:14:26;2.88;;;2.60;;
10957;SDS011;5531;42.570;23.676;2022-09-12T11:17:09;2.75;;;2.55;;
10957;SDS011;5531;42.570;23.676;2022-09-12T11:20:00;2.83;;;2.63;;
10957;SDS011;5531;42.570;23.676;2022-09-12T11:22:50;2.92;;;2.63;;
10957;SDS011;5531;42.570;23.676;2022-09-12T11:25:31;3.17;;;2.88;;
10957;SDS011;5531;42.570;23.676;2022-09-12T11:28:14;2.97;;;2.67;;
10957;SDS011;5531;42.570;23.676;2022-09-12T11:30:56;3.00;;;2.70;;
10957;SDS011;5531;42.570;23.676;2022-09-12T11:33:43;2.50;;;2.30;;
10957;SDS011;5531;42.570;23.676;2022-09-12T11:36:17;3.00;;;2.30;;
10957;SDS011;5531;42.570;23.676;2022-09-12T11:39:02;2.53;;;2.33;;
10957;SDS011;5531;42.570;23.676;2022-09-12T11:41:55;2.63;;;2.42;;
10957;SDS011;5531;42.570;23.676;2022-09-12T11:44:32;2.83;;;2.63;;
10957;SDS011;5531;42.570;23.676;2022-09-12T11:47:05;2.97;;;2.78;;
10957;SDS011;5531;42.570;23.676;2022-09-12T11:49:42;3.47;;;2.58;;
10957;SDS011;5531;42.570;23.676;2022-09-12T11:52:15;2.65;;;2.45;;
10957;SDS011;5531;42.570;23.676;2022-09-12T11:54:47;3.13;;;2.85;;
10957;SDS011;5531;42.570;23.676;2022-09-12T11:57:21;3.13;;;2.83;;
10957;SDS011;5531;42.570;23.676;2022-09-12T11:59:57;3.17;;;2.88;;
10957;SDS011;5531;42.570;23.676;2022-09-12T12:02:32;3.58;;;3.28;;
10957;SDS011;5531;42.570;23.676;2022-09-12T12:05:18;3.35;;;3.10;;
10957;SDS011;5531;42.570;23.676;2022-09-12T12:07:51;3.30;;;3.00;;
10957;SDS011;5531;42.570;23.676;2022-09-12T12:10:30;3.00;;;2.70;;
10957;SDS011;5531;42.570;23.676;2022-09-12T12:13:04;3.00;;;2.60;;
10957;SDS011;5531;42.570;23.676;2022-09-12T12:15:35;3.97;;;2.67;;
10957;SDS011;5531;42.570;23.676;2022-09-12T12:18:07;3.03;;;2.80;;
10957;SDS011;5531;42.570;23.676;2022-09-12T12:20:46;2.53;;;2.33;;
10957;SDS011;5531;42.570;23.676;2022-09-12T12:23:23;2.80;;;2.50;;
10957;SDS011;5531;42.570;23.676;2022-09-12T12:25:55;3.47;;;2.85;;
10957;SDS011;5531;42.570;23.676;2022-09-12T12:31:24;2.90;;;2.70;;
10957;SDS011;5531;42.570;23.676;2022-09-12T12:34:18;2.63;;;2.42;;
10957;SDS011;5531;42.570;23.676;2022-09-12T12:36:57;3.05;;;2.85;;
10957;SDS011;5531;42.570;23.676;2022-09-12T12:39:54;2.90;;;2.70;;
10957;SDS011;5531;42.570;23.676;2022-09-12T12:48:31;2.60;;;2.40;;
10957;SDS011;5531;42.570;23.676;2022-09-12T12:51:25;2.33;;;2.13;;
10957;SDS011;5531;42.570;23.676;2022-09-12T12:54:02;2.83;;;2.63;;
10957;SDS011;5531;42.570;23.676;2022-09-12T12:56:33;2.50;;;2.30;;
10957;SDS011;5531;42.570;23.676;2022-09-12T12:59:16;2.50;;;2.30;;
10957;SDS011;5531;42.570;23.676;2022-09-12T13:01:49;2.90;;;2.63;;
10957;SDS011;5531;42.570;23.676;2022-09-12T13:04:22;2.10;;;2.00;;
10957;SDS011;5531;42.570;23.676;2022-09-12T13:06:55;1.95;;;1.85;;
10957;SDS011;5531;42.570;23.676;2022-09-12T13:09:30;1.80;;;1.70;;
10957;SDS011;5531;42.570;23.676;2022-09-12T13:12:02;1.92;;;1.80;;
10957;SDS011;5531;42.570;23.676;2022-09-12T13:14:46;2.13;;;1.80;;
10957;SDS011;5531;42.570;23.676;2022-09-12T13:17:33;1.90;;;1.80;;
10957;SDS011;5531;42.570;23.676;2022-09-12T13:20:13;2.00;;;1.90;;
10957;SDS011;5531;42.570;23.676;2022-09-12T13:22:47;2.20;;;2.00;;
10957;SDS011;5531;42.570;23.676;2022-09-12T13:25:23;2.17;;;2.08;;
10957;SDS011;5531;42.570;23.676;2022-09-12T13:27:58;2.10;;;2.00;;
10957;SDS011;5531;42.570;23.676;2022-09-12T13:30:32;2.30;;;2.10;;
10957;SDS011;5531;42.570;23.676;2022-09-12T13:33:09;2.70;;;2.50;;
10957;SDS011;5531;42.570;23.676;2022-09-12T13:35:58;2.70;;;2.50;;
10957;SDS011;5531;42.570;23.676;2022-09-12T13:38:47;2.70;;;2.50;;
10957;SDS011;5531;42.570;23.676;2022-09-12T13:41:44;2.75;;;2.55;;
10957;SDS011;5531;42.570;23.676;2022-09-12T13:44:31;2.58;;;2.38;;
10957;SDS011;5531;42.570;23.676;2022-09-12T13:47:09;2.67;;;2.47;;
10957;SDS011;5531;42.570;23.676;2022-09-12T13:49:45;2.80;;;2.60;;
10957;SDS011;5531;42.570;23.676;2022-09-12T13:52:18;3.33;;;2.72;;
10957;SDS011;5531;42.570;23.676;2022-09-12T13:54:50;2.50;;;2.30;;
10957;SDS011;5531;42.570;23.676;2022-09-12T13:57:29;2.67;;;2.47;;
10957;SDS011;5531;42.570;23.676;2022-09-12T14:00:03;2.25;;;2.05;;
10957;SDS011;5531;42.570;23.676;2022-09-12T14:02:35;2.63;;;2.42;;
10957;SDS011;5531;42.570;23.676;2022-09-12T14:05:10;2.70;;;2.50;;
10957;SDS011;5531;42.570;23.676;2022-09-12T14:07:41;2.83;;;2.63;;
10957;SDS011;5531;42.570;23.676;2022-09-12T14:10:21;2.70;;;2.50;;
10957;SDS011;5531;42.570;23.676;2022-09-12T14:12:59;2.60;;;2.40;;
10957;SDS011;5531;42.570;23.676;2022-09-12T14:15:31;2.50;;;2.30;;
10957;SDS011;5531;42.570;23.676;2022-09-12T14:18:03;2.42;;;2.28;;
10957;SDS011;5531;42.570;23.676;2022-09-12T14:20:35;67.78;;;33.05;;
10957;SDS011;5531;42.570;23.676;2022-09-12T14:23:10;139.60;;;52.60;;
10957;SDS011;5531;42.570;23.676;2022-09-12T14:25:45;47.28;;;19.25;;
10957;SDS011;5531;42.570;23.676;2022-09-12T14:28:19;4.85;;;4.22;;
10957;SDS011;5531;42.570;23.676;2022-09-12T14:31:01;4.25;;;3.63;;
10957;SDS011;5531;42.570;23.676;2022-09-12T14:33:33;4.82;;;3.67;;
10957;SDS011;5531;42.570;23.676;2022-09-12T14:36:16;2.83;;;2.50;;
10957;SDS011;5531;42.570;23.676;2022-09-12T14:38:49;3.47;;;2.50;;
10957;SDS011;5531;42.570;23.676;2022-09-12T14:41:22;4.32;;;3.60;;
10957;SDS011;5531;42.570;23.676;2022-09-12T14:43:57;4.72;;;3.45;;
10957;SDS011;5531;42.570;23.676;2022-09-12T14:46:29;3.63;;;3.33;;
10957;SDS011;5531;42.570;23.676;2022-09-12T14:49:00;3.05;;;2.85;;
10957;SDS011;5531;42.570;23.676;2022-09-12T14:51:37;4.82;;;3.08;;
10957;SDS011;5531;42.570;23.676;2022-09-12T15:00:17;3.10;;;2.80;;
10957;SDS011;5531;42.570;23.676;2022-09-12T15:02:52;3.40;;;3.10;;
10957;SDS011;5531;42.570;23.676;2022-09-12T15:05:23;3.20;;;2.90;;
10957;SDS011;5531;42.570;23.676;2022-09-12T15:07:57;2.80;;;2.60;;
10957;SDS011;5531;42.570;23.676;2022-09-12T15:10:28;2.80;;;2.60;;
10957;SDS011;5531;42.570;23.676;2022-09-12T15:13:12;2.58;;;2.38;;
10957;SDS011;5531;42.570;23.676;2022-09-12T15:15:48;2.65;;;2.45;;
10957;SDS011;5531;42.570;23.676;2022-09-12T15:18:19;3.00;;;2.80;;
10957;SDS011;5531;42.570;23.676;2022-09-12T15:20:51;2.78;;;2.58;;
10957;SDS011;5531;42.570;23.676;2022-09-12T15:23:26;2.97;;;2.78;;
10957;SDS011;5531;42.570;23.676;2022-09-12T15:26:00;3.10;;;2.90;;
10957;SDS011;5531;42.570;23.676;2022-09-12T15:28:29;3.10;;;2.90;;
10957;SDS011;5531;42.570;23.676;2022-09-12T15:31:04;3.30;;;3.00;;
10957;SDS011;5531;42.570;23.676;2022-09-12T15:33:35;2.88;;;2.67;;
10957;SDS011;5531;42.570;23.676;2022-09-12T15:36:07;3.47;;;3.17;;
10957;SDS011;5531;42.570;23.676;2022-09-12T15:38:42;3.58;;;3.28;;
10957;SDS011;5531;42.570;23.676;2022-09-12T15:41:13;3.58;;;3.28;;
10957;SDS011;5531;42.570;23.676;2022-09-12T15:43:44;3.65;;;3.35;;
10957;SDS011;5531;42.570;23.676;2022-09-12T15:46:16;3.50;;;3.20;;
10957;SDS011;5531;42.570;23.676;2022-09-12T15:48:45;3.40;;;3.20;;
10957;SDS011;5531;42.570;23.676;2022-09-12T15:51:15;3.33;;;3.10;;
10957;SDS011;5531;42.570;23.676;2022-09-12T15:53:45;3.78;;;3.47;;
10957;SDS011;5531;42.570;23.676;2022-09-12T15:56:15;3.33;;;3.03;;